Flight Track Log - Related Links

Times and Time Zones

All times are in EDT time to prevent confusion due to time zone crossing. See the N6ZQ flight status page for this flight to view local times or setup timezone preferences in your user account.

Time Position Orientation Groundspeed Altitude Reporting Facility
EDT Latitude Longitude Course Direction KTS MPH feet Rate Location/Type
Wed 08:23:46 38.4167 -77.4500 242° Southwest 132 152 1,700  Level Potomac TRACON
Wed 08:24:46 38.3833 -77.4167 142° Southeast 151 174 2,500 600 Climbing Potomac TRACON
Wed 08:25:46 38.3500 -77.3667 130° Southeast 156 180 2,900 211 Climbing Potomac TRACON
Wed 08:26:40 38.3167 -77.3833 201° Southwest 197 227 2,900 474 Level Potomac TRACON
Wed 08:27:40 38.3167 -77.4333 270° West 192 221 3,800 950 Climbing Potomac TRACON
Wed 08:28:40 38.3167 -77.5000 270° West 178 205 4,800 950 Climbing Potomac TRACON
Wed 08:29:00 38.0680 -77.5392 242° Southwest  Level Estimated
Wed 08:29:40 38.3167 -77.5667 270° West 181 208 5,700  Level Potomac TRACON
Wed 08:30:33 38.3333 -77.6192 292° West 193 222 6,200 818 Climbing Washington Center
Wed 08:31:30 38.3386 -77.6778 277° West 193 222 7,200 864 Climbing Washington Center
Wed 08:32:31 38.3231 -77.7300 249° West 177 204 7,900 639 Climbing Washington Center
Wed 08:33:32 38.2889 -77.7767 227° Southwest 166 191 8,500 595 Climbing Washington Center
Wed 08:34:32 38.2569 -77.8208 227° Southwest 173 199 9,100 605 Climbing Washington Center
Wed 08:35:31 38.2225 -77.8672 227° Southwest 179 206 9,700 600 Climbing Washington Center
Wed 08:36:32 38.1842 -77.9136 224° Southwest 179 206 10,300 645 Climbing Washington Center
Wed 08:37:32 38.1561 -77.9603 233° Southwest 179 206 11,000 610 Climbing Washington Center
Wed 08:38:30 38.1219 -78.0042 225° Southwest 179 206 11,500 454 Climbing Washington Center
Wed 08:39:31 38.0897 -78.0481 227° Southwest 179 206 11,900 248 Climbing Washington Center
Wed 08:40:31 38.0553 -78.0997 230° Southwest 189 217 12,000 50 Climbing Washington Center
Wed 08:41:31 38.0247 -78.1592 237° Southwest 201 231 12,000  Level Washington Center
Wed 08:42:32 37.9764 -78.1786 198° South 196 226 12,000  Level Washington Center
Wed 08:43:32 37.9278 -78.2111 208° Southwest 196 226 12,000  Level Washington Center
Wed 08:44:31 37.8750 -78.2358 200° South 206 237 12,000 -50 Level Washington Center
Wed 08:45:31 37.8183 -78.2625 200° South 206 237 11,900 -50 Descending Washington Center
Wed 08:46:32 37.7653 -78.2922 204° Southwest 206 237 11,900 50 Level Washington Center
Wed 08:47:30 37.7125 -78.3192 202° Southwest 206 237 12,000 50 Climbing Washington Center
Wed 08:48:32 37.6619 -78.3464 203° Southwest 206 237 12,000  Level Washington Center
Wed 08:49:30 37.6133 -78.3733 204° Southwest 206 237 12,000 -50 Level Washington Center
Wed 08:50:31 37.5625 -78.4031 205° Southwest 211 243 11,900 -50 Descending Washington Center
Wed 08:51:31 37.5078 -78.4325 203° Southwest 211 243 11,900  Level Washington Center
Wed 08:52:30 37.4569 -78.4619 205° Southwest 211 243 11,900 50 Level Washington Center
Wed 08:53:32 37.3978 -78.4964 205° Southwest 216 249 12,000 49 Climbing Washington Center
Wed 08:54:32 37.3469 -78.5231 203° Southwest 216 249 12,000 -50 Level Washington Center
Wed 08:55:32 37.2961 -78.5525 205° Southwest 211 243 11,900  Descending Washington Center
Wed 08:56:31 37.2436 -78.5686 194° South 206 237 12,000 50 Climbing Washington Center
Wed 08:57:31 37.1908 -78.5928 200° South 206 237 12,000  Level Washington Center
Wed 08:58:32 37.1483 -78.6222 209° Southwest 206 237 12,000  Level Washington Center
Wed 08:59:32 37.0975 -78.6567 208° Southwest 206 237 12,000  Level Washington Center
Wed 09:00:30 37.0467 -78.6858 205° Southwest 206 237 12,000 50 Level Washington Center
Wed 09:01:31 36.9958 -78.7150 205° Southwest 206 237 12,100  Climbing Washington Center
Wed 09:02:31 36.9386 -78.7517 207° Southwest 206 237 12,000 -50 Descending Washington Center
Wed 09:03:32 36.8878 -78.7808 205° Southwest 206 237 12,000  Level Washington Center
Wed 09:04:31 36.8369 -78.8100 205° Southwest 206 237 12,000  Level Washington Center
Wed 09:05:32 36.7839 -78.8389 204° Southwest 206 237 12,000  Level Washington Center
Wed 09:06:32 36.7369 -78.8758 212° Southwest 206 237 12,000  Level Washington Center
Wed 09:07:30 36.7311 -78.9403 264° West 190 219 12,000  Level Washington Center
Wed 09:08:30 36.7186 -79.0097 257° West 196 226 12,000  Level Washington Center
Wed 09:09:30 36.6939 -79.0733 244° Southwest 202 232 12,000 50 Level Washington Center
Wed 09:10:31 36.6628 -79.1342 237° Southwest 207 238 12,100  Climbing Washington Center
Wed 09:11:32 36.6317 -79.2000 240° Southwest 213 245 12,000 -50 Descending Washington Center
Wed 09:12:32 36.5806 -79.2364 210° Southwest 207 238 12,000  Level Washington Center
Wed 09:13:31 36.5275 -79.2625 202° Southwest 207 238 12,000  Level Washington Center
Wed 09:14:31 36.4728 -79.2806 195° South 207 238 12,000  Level Washington Center
Wed 09:15:30 36.4197 -79.3039 199° South 207 238 12,000  Level Washington Center
Wed 09:17:00 36.3506 -79.3473 207° Southwest  Level FlightAware Approximate
Wed 09:21:19 36.1064 -79.4536 200° South 212 244 12,000  Level Washington Center
Wed 09:22:20 36.0514 -79.4764 199° South 229 264 12,100  Climbing Washington Center
Wed 09:23:20 36.0003 -79.5047 204° Southwest 213 245 12,000 -50 Descending Washington Center
Wed 09:24:00 36.0150 -79.5124 200° South  Level FlightAware Approximate
Wed 09:24:19 35.9472 -79.5331 203° Southwest 213 245 12,000  Level Washington Center
Wed 09:25:00 35.9664 -79.5340 200° South  Level FlightAware Approximate
Wed 09:25:18 35.8964 -79.5586 202° Southwest 208 239 12,000  Level Washington Center
Wed 09:26:00 35.9178 -79.5556 200° South  Level FlightAware Approximate
Wed 09:26:18 35.8411 -79.5842 201° Southwest 208 239 12,000  Level Washington Center
Wed 09:27:18 35.7842 -79.6042 196° South 214 246 12,000  Level Washington Center
Wed 09:28:20 35.7289 -79.6322 202° Southwest 214 246 12,000  Level Washington Center
Wed 09:29:20 35.6719 -79.6547 198° South 214 246 12,000  Level Washington Center
Wed 09:30:18 35.6169 -79.6775 199° South 214 246 12,000  Level Washington Center
Wed 09:31:19 35.5636 -79.7056 203° Southwest 215 247 12,000 -49 Level Washington Center
Wed 09:32:20 35.5064 -79.7306 200° South 220 253 11,900  Descending Washington Center
Wed 09:33:18 35.4492 -79.7556 200° South 220 253 12,000 51 Climbing Washington Center
Wed 09:34:18 35.3900 -79.7831 201° Southwest 220 253 12,000  Level Washington Center
Wed 09:35:19 35.3325 -79.8108 202° Southwest 220 253 12,000  Level Washington Center
Wed 09:36:20 35.2731 -79.8381 201° Southwest 225 259 12,000 -50 Level Washington Center
Wed 09:37:18 35.2119 -79.8578 195° South 230 265 11,900 -50 Descending Washington Center
Wed 09:38:19 35.1519 -79.8469 172° South 224 258 11,900  Level Washington Center
Wed 09:39:20 35.0911 -79.8539 185° South 224 258 11,900 50 Level Washington Center
Wed 09:40:18 35.0319 -79.8761 197° South 224 258 12,000 31 Climbing Washington Center
Wed 09:42:33 34.9075 -79.9386 202° Southwest 222 255 12,000  Level Jacksonville Center
Wed 09:43:33 34.8517 -79.9658 202° Southwest 222 255 12,000  Level Jacksonville Center
Wed 09:44:33 34.7939 -79.9906 199° South 227 261 12,000  Level Jacksonville Center
Wed 09:45:33 34.7383 -80.0175 202° Southwest 227 261 12,000  Level Jacksonville Center
Wed 09:46:33 34.6825 -80.0447 202° Southwest 227 261 12,000  Level Jacksonville Center
Wed 09:47:33 34.6247 -80.0719 201° Southwest 227 261 12,000  Level Jacksonville Center
Wed 09:48:33 34.5692 -80.1014 204° Southwest 227 261 12,000  Level Jacksonville Center
Wed 09:49:33 34.5114 -80.1258 199° South 227 261 12,000  Level Jacksonville Center
Wed 09:50:33 34.4533 -80.1506 199° South 232 267 12,000  Level Jacksonville Center
Wed 09:51:33 34.3978 -80.1800 204° Southwest 232 267 12,000  Level Jacksonville Center
Wed 09:52:33 34.3397 -80.2069 201° Southwest 232 267 12,000  Level Jacksonville Center
Wed 09:53:33 34.2839 -80.2261 196° South 232 267 12,000  Level Jacksonville Center
Wed 09:54:33 34.2283 -80.2606 207° Southwest 232 267 12,000  Level Jacksonville Center
Wed 09:55:33 34.1703 -80.2797 195° South 232 267 12,000  Level Jacksonville Center
Wed 09:56:33 34.1125 -80.3092 203° Southwest 227 261 12,000  Level Jacksonville Center
Wed 09:57:33 34.0567 -80.3383 203° Southwest 227 261 12,000  Level Jacksonville Center
Wed 09:58:33 33.9989 -80.3625 199° South 227 261 12,000 -50 Level Jacksonville Center
Wed 09:59:33 33.9431 -80.3892 202° Southwest 227 261 11,900 -50 Descending Jacksonville Center
Wed 10:00:33 33.8872 -80.4158 202° Southwest 227 261 11,900  Level Jacksonville Center
Wed 10:01:33 33.8272 -80.4425 200° South 227 261 11,900  Level Jacksonville Center
Wed 10:02:33 33.7714 -80.4692 202° Southwest 227 261 11,900  Level Jacksonville Center
Wed 10:03:33 33.7136 -80.4956 201° Southwest 227 261 11,900  Level Jacksonville Center
Wed 10:04:33 33.6578 -80.5222 202° Southwest 227 261 11,900  Level Jacksonville Center
Wed 10:05:33 33.5997 -80.5486 201° Southwest 227 261 11,900  Level Jacksonville Center
Wed 10:06:33 33.5439 -80.5750 202° Southwest 227 261 11,900  Level Jacksonville Center
Wed 10:07:33 33.4881 -80.6014 202° Southwest 227 261 11,900  Level Jacksonville Center
Wed 10:08:33 33.4322 -80.6278 202° Southwest 227 261 11,900  Level Jacksonville Center
Wed 10:09:33 33.3719 -80.6517 198° South 227 261 11,900  Level Jacksonville Center
Wed 10:10:33 33.3161 -80.6778 201° Southwest 227 261 11,900  Level Jacksonville Center
Wed 10:11:33 33.2622 -80.7042 202° Southwest 227 261 11,900  Level Jacksonville Center
Wed 10:12:33 33.2042 -80.7278 199° South 227 261 11,900  Level Jacksonville Center
Wed 10:13:33 33.1483 -80.7539 201° Southwest 227 261 11,900  Level Jacksonville Center
Wed 10:14:33 33.0925 -80.7800 201° Southwest 227 261 11,900  Level Jacksonville Center
Wed 10:15:33 33.0364 -80.8036 199° South 227 261 11,900  Level Jacksonville Center
Wed 10:16:33 32.9786 -80.8297 201° Southwest 227 261 11,900  Level Jacksonville Center
Wed 10:17:33 32.9206 -80.8558 201° Southwest 227 261 11,900  Level Jacksonville Center
Wed 10:18:33 32.8644 -80.8819 201° Southwest 227 261 11,900  Level Jacksonville Center
Wed 10:19:33 32.8086 -80.9053 199° South 227 261 11,900  Level Jacksonville Center
Wed 10:20:33 32.7525 -80.9314 201° Southwest 227 261 11,900  Level Jacksonville Center
Wed 10:21:33 32.6944 -80.9572 201° Southwest 227 261 11,900  Level Jacksonville Center
Wed 10:22:33 32.6386 -80.9806 199° South 227 261 11,900  Level Jacksonville Center
Wed 10:23:33 32.5825 -81.0067 201° Southwest 227 261 11,900 50 Level Jacksonville Center
Wed 10:24:33 32.5267 -81.0322 201° Southwest 227 261 12,000 50 Climbing Jacksonville Center
Wed 10:25:33 32.4644 -81.0606 201° Southwest 227 261 12,000 -50 Level Jacksonville Center
Wed 10:26:33 32.4083 -81.0864 201° Southwest 232 267 11,900 -50 Descending Jacksonville Center
Wed 10:27:33 32.3503 -81.1097 199° South 227 261 11,900  Level Jacksonville Center
Wed 10:28:33 32.2942 -81.1353 201° Southwest 221 254 11,900  Level Jacksonville Center
Wed 10:29:33 32.2383 -81.1611 201° Southwest 221 254 11,900  Level Jacksonville Center
Wed 10:30:33 32.1822 -81.1867 201° Southwest 221 254 11,900  Level Jacksonville Center
Wed 10:31:33 32.1239 -81.1950 187° South 215 247 11,900  Level Jacksonville Center
Wed 10:32:33 32.0633 -81.1961 181° South 215 247 11,900  Level Jacksonville Center
Wed 10:33:33 32.0047 -81.1900 175° South 220 253 11,900  Level Jacksonville Center
Wed 10:34:33 31.9464 -81.1886 179° South 214 246 11,900  Level Jacksonville Center
Wed 10:35:33 31.8836 -81.1822 175° South 214 246 11,900 50 Level Jacksonville Center
Wed 10:36:33 31.8272 -81.1833 181° South 208 239 12,000 50 Climbing Jacksonville Center
Wed 10:37:33 31.7667 -81.1772 175° South 216 249 12,000  Level Jacksonville Center
Wed 10:38:33 31.7122 -81.1733 177° South 216 249 12,000  Level Jacksonville Center
Wed 10:39:33 31.6475 -81.1697 177° South 216 249 12,000  Level Jacksonville Center
Wed 10:40:33 31.5931 -81.1681 179° South 216 249 12,000  Level Jacksonville Center
Wed 10:41:33 31.5283 -81.1644 177° South 216 249 12,000  Level Jacksonville Center
Wed 10:42:33 31.4719 -81.1606 177° South 216 249 12,000  Level Jacksonville Center
Wed 10:43:33 31.4178 -81.1567 176° South 216 249 12,000  Level Jacksonville Center
Wed 10:44:33 31.3550 -81.1531 177° South 216 249 12,000 -50 Level Jacksonville Center
Wed 10:45:33 31.3006 -81.1542 181° South 216 249 11,900 -50 Descending Jacksonville Center
Wed 10:46:33 31.2400 -81.1503 177° South 216 249 11,900  Level Jacksonville Center
Wed 10:47:33 31.1836 -81.1442 175° South 216 249 11,900  Level Jacksonville Center
Wed 10:48:33 31.1250 -81.1403 177° South 216 249 11,900  Level Jacksonville Center
Wed 10:49:33 31.0686 -81.1389 179° South 216 249 11,900  Level Jacksonville Center
Wed 10:50:33 31.0081 -81.1353 177° South 216 249 11,900  Level Jacksonville Center
Wed 10:51:33 30.9517 -81.1314 177° South 216 249 11,900  Level Jacksonville Center
Wed 10:52:33 30.8933 -81.1300 179° South 216 249 11,900  Level Jacksonville Center
Wed 10:53:33 30.8347 -81.1239 175° South 216 249 11,900  Level Jacksonville Center
Wed 10:54:33 30.7783 -81.1228 179° South 216 249 11,900 94 Level Jacksonville Center
Wed 10:54:37 30.7678 -81.1228 180° South 204 235 12,000 130 Climbing Jacksonville Center
Wed 10:55:19 30.7281 -81.1211 178° South 211 243 12,000 -107 Level Jacksonville Center
Wed 10:55:33 30.7219 -81.1189 163° South 216 249 11,900 -81 Descending Jacksonville Center
Wed 10:56:33 30.6614 -81.1153 177° South 216 249 11,900  Level Jacksonville Center
Wed 10:57:33 30.6069 -81.1136 178° South 216 249 11,900 52 Level Jacksonville Center
Wed 10:58:28 30.5486 -81.1147 181° South 203 234 12,000 100 Climbing Jacksonville Center
Wed 10:58:33 30.5486 -81.1147 181° South 216 249 12,000  Level Jacksonville Center
Wed 10:59:33 30.4900 -81.1136 179° South 211 243 12,000  Level Jacksonville Center
Wed 10:59:35 30.4858 -81.1136 180° South 206 237 12,000  Level Jacksonville Center
Wed 11:00:30 30.4294 -81.1147 181° South 206 237 12,000  Level Jacksonville Center
Wed 11:00:33 30.4317 -81.1147 360° North 218 251 12,000  Level Jacksonville Center
Wed 11:01:25 30.3772 -81.1156 181° South 207 238 12,000  Level Jacksonville Center
Wed 11:01:33 30.3772 -81.1133 90° East 218 251 12,000  Level Jacksonville Center
Wed 11:02:38 30.3083 -81.1144 181° South 206 237 12,000  Level Jacksonville Center
Wed 11:03:33 30.2542 -81.1131 179° South 205 236 12,000  Level Jacksonville Center
Wed 11:04:34 30.1978 -81.1142 181° South 204 235 12,000  Level Jacksonville Center
Wed 11:05:33 30.1475 -81.1128 179° South 205 236 12,000  Level Jacksonville Center
Wed 11:05:35 30.1414 -81.1175 214° Southwest 203 234 12,000  Level Jacksonville Center
Wed 11:06:33 30.0914 -81.1161 179° South 205 236 12,000  Level Jacksonville Center
Wed 11:06:36 30.0850 -81.1161 180° South 204 235 12,000  Level Jacksonville Center
Wed 11:07:33 30.0328 -81.1172 181° South 212 244 12,000  Level Jacksonville Center
Wed 11:08:33 29.9744 -81.1158 179° South 219 252 12,000  Level Jacksonville Center
Wed 11:09:33 29.9158 -81.1169 181° South 214 246 12,000  Level Jacksonville Center
Wed 11:10:33 29.8594 -81.1156 179° South 209 241 12,000  Level Jacksonville Center
Wed 11:11:33 29.8031 -81.1142 179° South 209 241 12,000  Level Jacksonville Center
Wed 11:12:33 29.7469 -81.1175 183° South 209 241 12,000  Level Jacksonville Center
Wed 11:13:33 29.6944 -81.0969 161° South 209 241 12,000  Level Jacksonville Center
Wed 11:14:33 29.6358 -81.0861 171° South 209 241 12,000  Level Jacksonville Center
Wed 11:15:33 29.5792 -81.0681 165° South 209 241 12,000  Level Jacksonville Center
Wed 11:16:33 29.5267 -81.0475 161° South 203 234 12,000  Level Jacksonville Center
Wed 11:17:33 29.4722 -81.0272 162° South 203 234 12,000 50 Level Jacksonville Center
Wed 11:18:33 29.4197 -81.0067 161° South 203 234 12,100 50 Climbing Jacksonville Center
Wed 11:19:33 29.3650 -80.9864 162° South 208 239 12,100  Level Jacksonville Center
Wed 11:20:33 29.3106 -80.9706 166° South 208 239 12,100  Level Jacksonville Center
Wed 11:21:33 29.2581 -80.9503 161° South 208 239 12,100  Level Jacksonville Center
Wed 11:22:33 29.2036 -80.9347 166° South 208 239 12,100  Level Jacksonville Center
Wed 11:23:33 29.1511 -80.9144 161° South 208 239 12,100  Level Jacksonville Center
Wed 11:24:33 29.0964 -80.8964 164° South 208 239 12,100  Level Jacksonville Center
Wed 11:25:33 29.0419 -80.8786 164° South 208 239 12,100  Level Jacksonville Center
Wed 11:26:33 28.9894 -80.8583 161° South 208 239 12,100  Level Jacksonville Center
Wed 11:27:33 28.9328 -80.8428 166° South 208 239 12,100  Level Jacksonville Center
Wed 11:28:33 28.8803 -80.8203 159° South 208 239 12,100 -59 Level Jacksonville Center
Wed 11:29:14 28.8500 -80.8000 150° Southeast 202 232 12,000 -56 Descending Orlando TRACON
Wed 11:30:20 28.7833 -80.7833 168° South 202 232 12,000  Level Orlando TRACON
Wed 11:31:20 28.7333 -80.7667 164° South 204 235 12,000  Level Orlando TRACON
Wed 11:32:20 28.6833 -80.7500 164° South 203 234 12,000  Level Orlando TRACON
Wed 11:33:26 28.6167 -80.7333 168° South 200 230 12,000  Level Orlando TRACON
Wed 11:34:20 28.5667 -80.7167 164° South 199 229 12,000  Level Orlando TRACON
Wed 11:35:20 28.5167 -80.7000 164° South 200 230 12,000  Level Orlando TRACON
Wed 11:36:20 28.4667 -80.6833 164° South 196 226 12,000 -29 Level Orlando TRACON
Wed 11:38:48 28.3344 -80.6375 163° South 200 230 11,900 -29 Descending Miami Center
Wed 11:39:48 28.2786 -80.6192 164° South 205 236 11,900 50 Level Miami Center
Wed 11:40:48 28.2269 -80.6008 163° South 200 230 12,000 50 Climbing Miami Center
Wed 11:41:48 28.1750 -80.5828 163° South 200 230 12,000  Level Miami Center
Wed 11:42:48 28.1214 -80.5669 165° South 200 230 12,000  Level Miami Center
Wed 11:43:48 28.0694 -80.5511 165° South 200 230 12,000 -200 Level Miami Center
Wed 11:44:48 28.0156 -80.5353 165° South 200 230 11,600 -450 Descending Miami Center
Wed 11:45:48 27.9536 -80.5144 163° South 205 236 11,100 -500 Descending Miami Center
Wed 11:46:48 27.8936 -80.4958 165° South 210 242 10,600 -550 Descending Miami Center
Wed 11:47:48 27.8336 -80.4728 161° South 223 257 10,000 -550 Descending Miami Center
Wed 11:48:48 27.7736 -80.4547 165° South 223 257 9,500 -500 Descending Miami Center
Wed 11:49:48 27.7092 -80.4339 164° South 223 257 9,000 -550 Descending Miami Center
Wed 11:50:48 27.6472 -80.4156 165° South 228 262 8,400 -500 Descending Miami Center
Wed 11:51:48 27.5850 -80.3947 163° South 228 262 8,000 -200 Descending Miami Center
Wed 11:52:48 27.5394 -80.3794 163° South 228 262 8,000 -150 Level Miami Center
Wed 11:53:48 27.4731 -80.3561 163° South 218 251 7,700 -400 Descending Miami Center
Wed 11:54:48 27.4153 -80.3333 161° South 218 251 7,200 -500 Descending Miami Center
Wed 11:55:48 27.3531 -80.3128 164° South 223 257 6,700 -500 Descending Miami Center
Wed 11:56:48 27.2911 -80.2900 162° South 223 257 6,200 -350 Descending Miami Center
Wed 11:57:48 27.2289 -80.2694 164° South 223 257 6,000 -100 Descending Miami Center
Wed 11:58:48 27.1731 -80.2514 164° South 223 257 6,000 -250 Level Miami Center
Wed 11:59:48 27.1108 -80.2333 166° South 223 257 5,500 -550 Descending Miami Center
Wed 12:00:48 27.0506 -80.2106 161° South 223 257 4,900 -300 Descending Miami Center
Wed 12:01:48 26.9906 -80.1925 165° South 223 257 4,900  Level Miami Center
Wed 12:02:48 26.9347 -80.1722 162° South 223 257 4,900  Level Miami Center
Wed 12:03:48 26.8808 -80.1544 164° South 218 251 4,900  Level Miami Center
Wed 12:05:00 26.8116 -80.1602 184° South  Level FlightAware Approximate
Wed 12:12:00 26.4097 -80.1053 170° South  Level FlightAware Approximate
Wed 12:13:00 26.3785 -80.1077 180° South  Level Estimated
Wed 12:14:00 26.3785 -80.1077 180° South  Level Estimated
Wed 12:15:00 26.3785 -80.1077 180° South  Level Estimated
Wed 12:16:00 26.3785 -80.1077 180° South  Level Estimated
Wed 12:17:00 26.3785 -80.1077 180° South  Level Estimated
Wed 12:18:00 26.3785 -80.1077 180° South  Level Estimated
Wed 12:19:00 26.3785 -80.1077 180° South  Level Estimated
Wed 12:20:00 26.3785 -80.1077 180° South  Level Estimated
Wed 12:21:00 26.3785 -80.1077 180° South  Level Estimated
Wed 12:22:00 26.3785 -80.1077 180° South  Level Estimated
Wed 12:23:00 26.3785 -80.1077 180° South  Level Estimated
Wed 12:24:00 26.3785 -80.1077 180° South  Level Estimated

Login

Don't have an account? Register now (free) for customized features, flight alerts, and more!